sensor_id;sensor_type;location;lat;lon;timestamp;P1;durP1;ratioP1;P2;durP2;ratioP2
65172;SDS011;51758;52.218;5.172;2022-11-15T00:01:07;49.97;;;27.23;;
65172;SDS011;51758;52.218;5.172;2022-11-15T00:03:35;52.67;;;27.50;;
65172;SDS011;51758;52.218;5.172;2022-11-15T00:06:03;46.42;;;26.40;;
65172;SDS011;51758;52.218;5.172;2022-11-15T00:11:01;49.57;;;26.03;;
65172;SDS011;51758;52.218;5.172;2022-11-15T00:13:30;56.53;;;28.70;;
65172;SDS011;51758;52.218;5.172;2022-11-15T00:15:58;65.72;;;27.88;;
65172;SDS011;51758;52.218;5.172;2022-11-15T00:18:27;66.30;;;30.13;;
65172;SDS011;51758;52.218;5.172;2022-11-15T00:20:55;63.40;;;27.85;;
65172;SDS011;51758;52.218;5.172;2022-11-15T00:23:23;72.97;;;30.45;;
65172;SDS011;51758;52.218;5.172;2022-11-15T00:25:55;76.43;;;32.30;;
65172;SDS011;51758;52.218;5.172;2022-11-15T00:28:25;78.57;;;30.93;;
65172;SDS011;51758;52.218;5.172;2022-11-15T00:30:53;77.43;;;31.77;;
65172;SDS011;51758;52.218;5.172;2022-11-15T00:33:21;74.63;;;31.77;;
65172;SDS011;51758;52.218;5.172;2022-11-15T00:35:48;67.27;;;29.20;;
65172;SDS011;51758;52.218;5.172;2022-11-15T00:38:16;62.57;;;28.30;;
65172;SDS011;51758;52.218;5.172;2022-11-15T00:40:44;80.63;;;29.93;;
65172;SDS011;51758;52.218;5.172;2022-11-15T00:43:11;72.83;;;31.33;;
65172;SDS011;51758;52.218;5.172;2022-11-15T00:45:40;74.97;;;30.07;;
65172;SDS011;51758;52.218;5.172;2022-11-15T00:48:08;79.07;;;28.60;;
65172;SDS011;51758;52.218;5.172;2022-11-15T00:53:04;72.77;;;28.60;;
65172;SDS011;51758;52.218;5.172;2022-11-15T00:55:31;88.40;;;30.40;;
65172;SDS011;51758;52.218;5.172;2022-11-15T00:57:59;87.97;;;30.73;;
65172;SDS011;51758;52.218;5.172;2022-11-15T01:00:27;90.00;;;31.60;;
65172;SDS011;51758;52.218;5.172;2022-11-15T01:02:56;94.80;;;30.90;;
65172;SDS011;51758;52.218;5.172;2022-11-15T01:05:23;86.47;;;32.40;;
65172;SDS011;51758;52.218;5.172;2022-11-15T01:07:51;94.73;;;32.47;;
65172;SDS011;51758;52.218;5.172;2022-11-15T01:10:19;103.60;;;33.27;;
65172;SDS011;51758;52.218;5.172;2022-11-15T01:12:46;112.30;;;35.35;;
65172;SDS011;51758;52.218;5.172;2022-11-15T01:15:14;88.13;;;32.13;;
65172;SDS011;51758;52.218;5.172;2022-11-15T01:17:42;91.07;;;33.50;;
65172;SDS011;51758;52.218;5.172;2022-11-15T01:20:11;100.17;;;32.27;;
65172;SDS011;51758;52.218;5.172;2022-11-15T01:22:39;92.27;;;32.10;;
65172;SDS011;51758;52.218;5.172;2022-11-15T01:25:07;118.77;;;38.40;;
65172;SDS011;51758;52.218;5.172;2022-11-15T01:27:34;97.83;;;35.30;;
65172;SDS011;51758;52.218;5.172;2022-11-15T01:30:02;98.73;;;33.13;;
65172;SDS011;51758;52.218;5.172;2022-11-15T01:32:31;96.72;;;33.88;;
65172;SDS011;51758;52.218;5.172;2022-11-15T01:34:58;98.22;;;34.67;;
65172;SDS011;51758;52.218;5.172;2022-11-15T01:37:27;102.53;;;35.87;;
65172;SDS011;51758;52.218;5.172;2022-11-15T01:39:55;107.83;;;36.40;;
65172;SDS011;51758;52.218;5.172;2022-11-15T01:42:23;92.37;;;33.80;;
65172;SDS011;51758;52.218;5.172;2022-11-15T01:44:50;108.23;;;35.27;;
65172;SDS011;51758;52.218;5.172;2022-11-15T01:47:21;102.87;;;34.57;;
65172;SDS011;51758;52.218;5.172;2022-11-15T01:49:53;88.10;;;34.27;;
65172;SDS011;51758;52.218;5.172;2022-11-15T01:52:25;94.47;;;34.33;;
65172;SDS011;51758;52.218;5.172;2022-11-15T01:54:58;100.80;;;35.57;;
65172;SDS011;51758;52.218;5.172;2022-11-15T01:57:29;84.00;;;32.27;;
65172;SDS011;51758;52.218;5.172;2022-11-15T01:59:57;94.22;;;35.30;;
65172;SDS011;51758;52.218;5.172;2022-11-15T02:02:28;102.97;;;35.93;;
65172;SDS011;51758;52.218;5.172;2022-11-15T02:04:56;106.67;;;36.47;;
65172;SDS011;51758;52.218;5.172;2022-11-15T02:07:23;98.37;;;37.50;;
65172;SDS011;51758;52.218;5.172;2022-11-15T02:09:53;94.38;;;35.33;;
65172;SDS011;51758;52.218;5.172;2022-11-15T02:12:22;102.23;;;38.30;;
65172;SDS011;51758;52.218;5.172;2022-11-15T02:14:50;116.85;;;39.30;;
65172;SDS011;51758;52.218;5.172;2022-11-15T02:23:27;105.07;;;37.07;;
65172;SDS011;51758;52.218;5.172;2022-11-15T02:29:41;96.83;;;37.27;;
65172;SDS011;51758;52.218;5.172;2022-11-15T02:32:27;115.87;;;39.93;;
65172;SDS011;51758;52.218;5.172;2022-11-15T02:35:02;115.13;;;39.63;;
65172;SDS011;51758;52.218;5.172;2022-11-15T02:37:39;119.70;;;40.33;;
65172;SDS011;51758;52.218;5.172;2022-11-15T02:40:13;115.83;;;39.57;;
65172;SDS011;51758;52.218;5.172;2022-11-15T02:42:50;124.97;;;41.83;;
65172;SDS011;51758;52.218;5.172;2022-11-15T02:45:41;111.93;;;40.60;;
65172;SDS011;51758;52.218;5.172;2022-11-15T02:48:16;119.70;;;40.80;;
65172;SDS011;51758;52.218;5.172;2022-11-15T02:50:45;109.63;;;40.53;;
65172;SDS011;51758;52.218;5.172;2022-11-15T02:53:14;118.57;;;42.35;;
65172;SDS011;51758;52.218;5.172;2022-11-15T02:55:43;135.63;;;42.58;;
65172;SDS011;51758;52.218;5.172;2022-11-15T02:58:37;135.07;;;43.93;;
65172;SDS011;51758;52.218;5.172;2022-11-15T03:01:24;124.93;;;44.50;;
65172;SDS011;51758;52.218;5.172;2022-11-15T03:04:05;109.80;;;41.40;;
65172;SDS011;51758;52.218;5.172;2022-11-15T03:06:48;141.07;;;46.77;;
65172;SDS011;51758;52.218;5.172;2022-11-15T03:09:19;138.90;;;49.27;;
65172;SDS011;51758;52.218;5.172;2022-11-15T03:11:57;144.95;;;47.85;;
65172;SDS011;51758;52.218;5.172;2022-11-15T03:14:31;129.80;;;43.40;;
65172;SDS011;51758;52.218;5.172;2022-11-15T03:17:06;141.80;;;47.77;;
65172;SDS011;51758;52.218;5.172;2022-11-15T03:19:44;141.52;;;44.90;;
65172;SDS011;51758;52.218;5.172;2022-11-15T03:22:15;133.83;;;44.40;;
65172;SDS011;51758;52.218;5.172;2022-11-15T03:24:46;128.90;;;43.53;;
65172;SDS011;51758;52.218;5.172;2022-11-15T03:27:21;133.57;;;42.93;;
65172;SDS011;51758;52.218;5.172;2022-11-15T03:29:53;148.50;;;46.17;;
65172;SDS011;51758;52.218;5.172;2022-11-15T03:32:25;127.83;;;44.57;;
65172;SDS011;51758;52.218;5.172;2022-11-15T03:34:57;147.47;;;46.43;;
65172;SDS011;51758;52.218;5.172;2022-11-15T03:37:30;142.93;;;45.53;;
65172;SDS011;51758;52.218;5.172;2022-11-15T03:40:02;130.60;;;45.57;;
65172;SDS011;51758;52.218;5.172;2022-11-15T03:42:32;135.13;;;44.43;;
65172;SDS011;51758;52.218;5.172;2022-11-15T03:45:08;148.57;;;47.00;;
65172;SDS011;51758;52.218;5.172;2022-11-15T03:47:42;136.30;;;45.83;;
65172;SDS011;51758;52.218;5.172;2022-11-15T03:50:18;138.43;;;46.47;;
65172;SDS011;51758;52.218;5.172;2022-11-15T03:52:47;134.97;;;47.13;;
65172;SDS011;51758;52.218;5.172;2022-11-15T03:55:17;121.93;;;46.13;;
65172;SDS011;51758;52.218;5.172;2022-11-15T03:57:48;123.40;;;45.00;;
65172;SDS011;51758;52.218;5.172;2022-11-15T04:00:17;139.90;;;45.03;;
65172;SDS011;51758;52.218;5.172;2022-11-15T04:02:45;118.93;;;51.07;;
65172;SDS011;51758;52.218;5.172;2022-11-15T04:05:13;134.20;;;47.83;;
65172;SDS011;51758;52.218;5.172;2022-11-15T04:07:42;130.83;;;45.27;;
65172;SDS011;51758;52.218;5.172;2022-11-15T04:10:10;116.57;;;45.07;;
65172;SDS011;51758;52.218;5.172;2022-11-15T04:12:39;105.55;;;42.13;;
65172;SDS011;51758;52.218;5.172;2022-11-15T04:15:09;109.40;;;43.80;;
65172;SDS011;51758;52.218;5.172;2022-11-15T04:17:39;96.07;;;43.13;;
65172;SDS011;51758;52.218;5.172;2022-11-15T04:20:10;108.10;;;44.30;;
65172;SDS011;51758;52.218;5.172;2022-11-15T04:22:59;101.47;;;40.70;;
65172;SDS011;51758;52.218;5.172;2022-11-15T04:25:45;93.97;;;40.53;;
65172;SDS011;51758;52.218;5.172;2022-11-15T04:28:16;92.53;;;42.27;;
65172;SDS011;51758;52.218;5.172;2022-11-15T04:30:44;87.72;;;40.80;;
65172;SDS011;51758;52.218;5.172;2022-11-15T04:33:12;89.67;;;42.20;;
65172;SDS011;51758;52.218;5.172;2022-11-15T04:35:39;90.00;;;40.03;;
65172;SDS011;51758;52.218;5.172;2022-11-15T04:38:09;83.53;;;40.37;;
65172;SDS011;51758;52.218;5.172;2022-11-15T04:40:37;89.03;;;40.87;;
65172;SDS011;51758;52.218;5.172;2022-11-15T04:43:04;88.53;;;42.35;;
65172;SDS011;51758;52.218;5.172;2022-11-15T04:45:32;79.47;;;37.77;;
65172;SDS011;51758;52.218;5.172;2022-11-15T04:48:00;80.03;;;37.80;;
65172;SDS011;51758;52.218;5.172;2022-11-15T04:50:27;78.53;;;39.10;;
65172;SDS011;51758;52.218;5.172;2022-11-15T04:52:55;82.43;;;41.40;;
65172;SDS011;51758;52.218;5.172;2022-11-15T04:55:24;86.50;;;37.57;;
65172;SDS011;51758;52.218;5.172;2022-11-15T04:57:58;73.50;;;35.60;;
65172;SDS011;51758;52.218;5.172;2022-11-15T05:00:26;75.63;;;37.47;;
65172;SDS011;51758;52.218;5.172;2022-11-15T05:02:55;79.97;;;38.23;;
65172;SDS011;51758;52.218;5.172;2022-11-15T05:05:42;73.43;;;35.83;;
65172;SDS011;51758;52.218;5.172;2022-11-15T05:08:09;78.83;;;36.13;;
65172;SDS011;51758;52.218;5.172;2022-11-15T05:10:38;70.30;;;37.17;;
65172;SDS011;51758;52.218;5.172;2022-11-15T05:13:05;79.57;;;38.63;;
65172;SDS011;51758;52.218;5.172;2022-11-15T05:15:33;71.50;;;35.30;;
65172;SDS011;51758;52.218;5.172;2022-11-15T05:18:01;75.00;;;35.80;;
65172;SDS011;51758;52.218;5.172;2022-11-15T05:20:28;72.10;;;36.67;;
65172;SDS011;51758;52.218;5.172;2022-11-15T05:22:56;64.30;;;34.97;;
65172;SDS011;51758;52.218;5.172;2022-11-15T05:25:23;68.57;;;35.90;;
65172;SDS011;51758;52.218;5.172;2022-11-15T05:27:53;60.60;;;34.42;;
65172;SDS011;51758;52.218;5.172;2022-11-15T05:30:21;69.70;;;34.40;;
65172;SDS011;51758;52.218;5.172;2022-11-15T05:32:48;62.90;;;34.90;;
65172;SDS011;51758;52.218;5.172;2022-11-15T05:35:18;55.35;;;33.38;;
65172;SDS011;51758;52.218;5.172;2022-11-15T05:37:53;58.50;;;32.87;;
65172;SDS011;51758;52.218;5.172;2022-11-15T05:40:20;54.40;;;31.63;;
65172;SDS011;51758;52.218;5.172;2022-11-15T05:42:48;64.70;;;32.87;;
65172;SDS011;51758;52.218;5.172;2022-11-15T05:45:17;61.40;;;33.00;;
65172;SDS011;51758;52.218;5.172;2022-11-15T05:47:52;53.67;;;33.60;;
65172;SDS011;51758;52.218;5.172;2022-11-15T05:50:21;56.80;;;32.30;;
65172;SDS011;51758;52.218;5.172;2022-11-15T05:52:49;56.77;;;30.53;;
65172;SDS011;51758;52.218;5.172;2022-11-15T05:55:17;55.10;;;32.47;;
65172;SDS011;51758;52.218;5.172;2022-11-15T05:57:45;57.47;;;32.83;;
65172;SDS011;51758;52.218;5.172;2022-11-15T06:00:13;53.90;;;31.07;;
65172;SDS011;51758;52.218;5.172;2022-11-15T06:02:42;50.60;;;31.48;;
65172;SDS011;51758;52.218;5.172;2022-11-15T06:05:09;53.43;;;33.43;;
65172;SDS011;51758;52.218;5.172;2022-11-15T06:07:37;48.07;;;30.83;;
65172;SDS011;51758;52.218;5.172;2022-11-15T06:10:05;51.17;;;32.23;;
65172;SDS011;51758;52.218;5.172;2022-11-15T06:12:33;46.60;;;30.93;;
65172;SDS011;51758;52.218;5.172;2022-11-15T06:15:01;46.77;;;30.57;;
65172;SDS011;51758;52.218;5.172;2022-11-15T06:17:29;54.97;;;32.70;;
65172;SDS011;51758;52.218;5.172;2022-11-15T06:19:58;56.63;;;30.63;;
65172;SDS011;51758;52.218;5.172;2022-11-15T06:22:25;47.40;;;31.60;;
65172;SDS011;51758;52.218;5.172;2022-11-15T06:24:53;52.43;;;34.03;;
65172;SDS011;51758;52.218;5.172;2022-11-15T06:27:20;53.83;;;29.70;;
65172;SDS011;51758;52.218;5.172;2022-11-15T06:29:48;48.00;;;31.55;;
65172;SDS011;51758;52.218;5.172;2022-11-15T06:32:16;56.45;;;31.75;;
65172;SDS011;51758;52.218;5.172;2022-11-15T06:34:44;54.60;;;31.10;;
65172;SDS011;51758;52.218;5.172;2022-11-15T06:37:13;53.03;;;31.57;;
65172;SDS011;51758;52.218;5.172;2022-11-15T06:39:40;48.43;;;30.57;;
65172;SDS011;51758;52.218;5.172;2022-11-15T06:42:08;48.07;;;29.13;;
65172;SDS011;51758;52.218;5.172;2022-11-15T06:44:36;47.40;;;30.15;;
65172;SDS011;51758;52.218;5.172;2022-11-15T06:47:03;47.43;;;30.43;;
65172;SDS011;51758;52.218;5.172;2022-11-15T06:49:31;53.73;;;30.23;;
65172;SDS011;51758;52.218;5.172;2022-11-15T06:51:58;50.93;;;29.73;;
65172;SDS011;51758;52.218;5.172;2022-11-15T06:54:27;52.80;;;30.77;;
65172;SDS011;51758;52.218;5.172;2022-11-15T06:56:55;54.73;;;31.80;;
65172;SDS011;51758;52.218;5.172;2022-11-15T06:59:23;49.77;;;30.50;;
65172;SDS011;51758;52.218;5.172;2022-11-15T07:01:50;52.63;;;32.40;;
65172;SDS011;51758;52.218;5.172;2022-11-15T07:04:18;45.80;;;28.57;;
65172;SDS011;51758;52.218;5.172;2022-11-15T07:06:46;47.30;;;29.23;;
65172;SDS011;51758;52.218;5.172;2022-11-15T07:09:14;45.25;;;27.85;;
65172;SDS011;51758;52.218;5.172;2022-11-15T07:11:43;46.97;;;28.10;;
65172;SDS011;51758;52.218;5.172;2022-11-15T07:14:11;45.57;;;27.27;;
65172;SDS011;51758;52.218;5.172;2022-11-15T07:16:40;49.47;;;28.27;;
65172;SDS011;51758;52.218;5.172;2022-11-15T07:19:08;50.25;;;28.15;;
65172;SDS011;51758;52.218;5.172;2022-11-15T07:24:05;44.42;;;27.02;;
65172;SDS011;51758;52.218;5.172;2022-11-15T07:26:34;42.93;;;26.40;;
65172;SDS011;51758;52.218;5.172;2022-11-15T07:29:04;38.83;;;26.77;;
65172;SDS011;51758;52.218;5.172;2022-11-15T07:31:33;45.70;;;26.10;;
65172;SDS011;51758;52.218;5.172;2022-11-15T07:34:01;44.10;;;26.98;;
65172;SDS011;51758;52.218;5.172;2022-11-15T07:36:30;44.42;;;26.77;;
65172;SDS011;51758;52.218;5.172;2022-11-15T07:38:59;45.83;;;27.85;;
65172;SDS011;51758;52.218;5.172;2022-11-15T07:41:28;53.28;;;26.88;;
65172;SDS011;51758;52.218;5.172;2022-11-15T07:43:57;46.77;;;28.23;;
65172;SDS011;51758;52.218;5.172;2022-11-15T07:46:27;42.47;;;27.38;;
65172;SDS011;51758;52.218;5.172;2022-11-15T07:48:55;41.03;;;25.33;;
65172;SDS011;51758;52.218;5.172;2022-11-15T07:51:24;41.67;;;25.15;;
65172;SDS011;51758;52.218;5.172;2022-11-15T07:53:52;43.15;;;24.63;;
65172;SDS011;51758;52.218;5.172;2022-11-15T07:56:21;38.28;;;24.58;;
65172;SDS011;51758;52.218;5.172;2022-11-15T07:58:48;38.13;;;23.93;;
65172;SDS011;51758;52.218;5.172;2022-11-15T08:01:16;40.13;;;24.50;;
65172;SDS011;51758;52.218;5.172;2022-11-15T08:03:45;46.27;;;23.27;;
65172;SDS011;51758;52.218;5.172;2022-11-15T08:06:13;44.97;;;24.27;;
65172;SDS011;51758;52.218;5.172;2022-11-15T08:08:40;40.27;;;24.00;;
65172;SDS011;51758;52.218;5.172;2022-11-15T08:11:08;39.93;;;23.30;;
65172;SDS011;51758;52.218;5.172;2022-11-15T08:13:35;44.20;;;24.00;;
65172;SDS011;51758;52.218;5.172;2022-11-15T08:16:04;39.00;;;23.17;;
65172;SDS011;51758;52.218;5.172;2022-11-15T08:18:32;40.83;;;22.53;;
65172;SDS011;51758;52.218;5.172;2022-11-15T08:21:01;39.07;;;24.73;;
65172;SDS011;51758;52.218;5.172;2022-11-15T08:23:29;40.83;;;23.17;;
65172;SDS011;51758;52.218;5.172;2022-11-15T08:25:59;35.43;;;22.10;;
65172;SDS011;51758;52.218;5.172;2022-11-15T08:28:27;38.40;;;22.53;;
65172;SDS011;51758;52.218;5.172;2022-11-15T08:30:55;37.57;;;21.33;;
65172;SDS011;51758;52.218;5.172;2022-11-15T08:33:23;32.77;;;22.00;;
65172;SDS011;51758;52.218;5.172;2022-11-15T08:35:51;32.10;;;22.10;;
65172;SDS011;51758;52.218;5.172;2022-11-15T08:38:20;38.47;;;22.47;;
65172;SDS011;51758;52.218;5.172;2022-11-15T08:40:48;35.00;;;20.00;;
65172;SDS011;51758;52.218;5.172;2022-11-15T08:43:16;34.20;;;20.13;;
65172;SDS011;51758;52.218;5.172;2022-11-15T08:45:43;38.40;;;20.93;;
65172;SDS011;51758;52.218;5.172;2022-11-15T08:48:12;30.85;;;18.40;;
65172;SDS011;51758;52.218;5.172;2022-11-15T08:50:39;27.93;;;18.43;;
65172;SDS011;51758;52.218;5.172;2022-11-15T08:53:07;30.53;;;18.37;;
65172;SDS011;51758;52.218;5.172;2022-11-15T08:55:37;32.33;;;17.98;;
65172;SDS011;51758;52.218;5.172;2022-11-15T08:58:06;28.17;;;18.37;;
65172;SDS011;51758;52.218;5.172;2022-11-15T09:00:34;29.67;;;17.83;;
65172;SDS011;51758;52.218;5.172;2022-11-15T09:03:03;27.43;;;16.10;;
65172;SDS011;51758;52.218;5.172;2022-11-15T09:05:31;30.53;;;17.60;;
65172;SDS011;51758;52.218;5.172;2022-11-15T09:07:58;26.13;;;16.63;;
65172;SDS011;51758;52.218;5.172;2022-11-15T09:10:40;27.77;;;15.40;;
65172;SDS011;51758;52.218;5.172;2022-11-15T09:13:07;23.33;;;14.60;;
65172;SDS011;51758;52.218;5.172;2022-11-15T09:15:35;24.17;;;14.37;;
65172;SDS011;51758;52.218;5.172;2022-11-15T09:18:03;19.53;;;12.90;;
65172;SDS011;51758;52.218;5.172;2022-11-15T09:20:30;24.03;;;12.87;;
65172;SDS011;51758;52.218;5.172;2022-11-15T09:22:59;23.20;;;12.38;;
65172;SDS011;51758;52.218;5.172;2022-11-15T09:25:28;21.25;;;12.88;;
65172;SDS011;51758;52.218;5.172;2022-11-15T09:27:57;24.80;;;12.95;;
65172;SDS011;51758;52.218;5.172;2022-11-15T09:30:25;23.67;;;13.77;;
65172;SDS011;51758;52.218;5.172;2022-11-15T09:32:53;17.77;;;11.73;;
65172;SDS011;51758;52.218;5.172;2022-11-15T09:35:20;18.53;;;11.87;;
65172;SDS011;51758;52.218;5.172;2022-11-15T09:37:48;18.70;;;12.57;;
65172;SDS011;51758;52.218;5.172;2022-11-15T09:40:21;18.47;;;12.50;;
65172;SDS011;51758;52.218;5.172;2022-11-15T09:42:58;19.05;;;11.50;;
65172;SDS011;51758;52.218;5.172;2022-11-15T09:45:37;18.73;;;11.33;;
65172;SDS011;51758;52.218;5.172;2022-11-15T09:48:24;15.77;;;10.30;;
65172;SDS011;51758;52.218;5.172;2022-11-15T09:51:18;14.57;;;10.27;;
65172;SDS011;51758;52.218;5.172;2022-11-15T09:53:52;16.50;;;10.03;;
65172;SDS011;51758;52.218;5.172;2022-11-15T09:56:44;14.40;;;9.13;;
65172;SDS011;51758;52.218;5.172;2022-11-15T09:59:34;14.70;;;8.93;;
65172;SDS011;51758;52.218;5.172;2022-11-15T10:02:16;15.23;;;8.70;;
65172;SDS011;51758;52.218;5.172;2022-11-15T10:04:56;18.43;;;9.60;;
65172;SDS011;51758;52.218;5.172;2022-11-15T10:07:27;14.03;;;8.73;;
65172;SDS011;51758;52.218;5.172;2022-11-15T10:10:00;11.83;;;7.87;;
65172;SDS011;51758;52.218;5.172;2022-11-15T10:12:36;12.00;;;7.83;;
65172;SDS011;51758;52.218;5.172;2022-11-15T10:15:06;11.52;;;7.00;;
65172;SDS011;51758;52.218;5.172;2022-11-15T10:17:57;10.37;;;6.70;;
65172;SDS011;51758;52.218;5.172;2022-11-15T10:20:34;11.63;;;7.00;;
65172;SDS011;51758;52.218;5.172;2022-11-15T10:23:10;10.47;;;7.00;;
65172;SDS011;51758;52.218;5.172;2022-11-15T10:25:40;11.47;;;6.37;;
65172;SDS011;51758;52.218;5.172;2022-11-15T10:28:10;11.47;;;6.30;;
65172;SDS011;51758;52.218;5.172;2022-11-15T10:30:43;11.33;;;6.37;;
65172;SDS011;51758;52.218;5.172;2022-11-15T10:33:21;8.23;;;5.40;;
65172;SDS011;51758;52.218;5.172;2022-11-15T10:38:51;9.17;;;6.07;;
65172;SDS011;51758;52.218;5.172;2022-11-15T10:41:29;10.47;;;5.80;;
65172;SDS011;51758;52.218;5.172;2022-11-15T10:44:20;11.97;;;5.27;;
65172;SDS011;51758;52.218;5.172;2022-11-15T10:47:20;9.83;;;5.30;;
65172;SDS011;51758;52.218;5.172;2022-11-15T10:50:00;8.13;;;5.33;;
65172;SDS011;51758;52.218;5.172;2022-11-15T10:52:30;10.30;;;6.07;;
65172;SDS011;51758;52.218;5.172;2022-11-15T10:55:01;8.93;;;5.83;;
65172;SDS011;51758;52.218;5.172;2022-11-15T10:57:35;9.20;;;5.57;;
65172;SDS011;51758;52.218;5.172;2022-11-15T11:00:05;10.47;;;5.90;;
65172;SDS011;51758;52.218;5.172;2022-11-15T11:02:36;9.63;;;5.40;;
65172;SDS011;51758;52.218;5.172;2022-11-15T11:05:06;8.07;;;5.43;;
65172;SDS011;51758;52.218;5.172;2022-11-15T11:07:55;7.00;;;5.30;;
65172;SDS011;51758;52.218;5.172;2022-11-15T11:10:23;7.67;;;4.83;;
65172;SDS011;51758;52.218;5.172;2022-11-15T11:13:14;8.43;;;5.20;;
65172;SDS011;51758;52.218;5.172;2022-11-15T11:15:51;7.00;;;4.70;;
65172;SDS011;51758;52.218;5.172;2022-11-15T11:18:25;6.43;;;4.73;;
65172;SDS011;51758;52.218;5.172;2022-11-15T11:20:58;10.47;;;4.67;;
65172;SDS011;51758;52.218;5.172;2022-11-15T11:23:33;7.13;;;3.87;;
65172;SDS011;51758;52.218;5.172;2022-11-15T11:26:14;7.33;;;3.03;;
65172;SDS011;51758;52.218;5.172;2022-11-15T11:28:59;5.10;;;2.90;;
65172;SDS011;51758;52.218;5.172;2022-11-15T11:31:34;6.30;;;3.00;;
65172;SDS011;51758;52.218;5.172;2022-11-15T11:34:17;5.47;;;2.60;;
65172;SDS011;51758;52.218;5.172;2022-11-15T11:37:02;5.07;;;2.63;;
65172;SDS011;51758;52.218;5.172;2022-11-15T11:39:39;8.73;;;2.30;;
65172;SDS011;51758;52.218;5.172;2022-11-15T11:42:21;5.30;;;2.33;;
65172;SDS011;51758;52.218;5.172;2022-11-15T11:45:00;7.13;;;2.40;;
65172;SDS011;51758;52.218;5.172;2022-11-15T11:47:38;8.03;;;2.43;;
65172;SDS011;51758;52.218;5.172;2022-11-15T11:50:12;6.53;;;2.00;;
65172;SDS011;51758;52.218;5.172;2022-11-15T11:52:43;7.33;;;2.40;;
65172;SDS011;51758;52.218;5.172;2022-11-15T11:55:19;5.50;;;1.80;;
65172;SDS011;51758;52.218;5.172;2022-11-15T11:57:51;7.37;;;2.27;;
65172;SDS011;51758;52.218;5.172;2022-11-15T12:00:28;5.30;;;2.00;;
65172;SDS011;51758;52.218;5.172;2022-11-15T12:03:03;5.87;;;1.90;;
65172;SDS011;51758;52.218;5.172;2022-11-15T12:05:39;6.43;;;1.97;;
65172;SDS011;51758;52.218;5.172;2022-11-15T12:08:15;5.87;;;2.13;;
65172;SDS011;51758;52.218;5.172;2022-11-15T12:10:52;6.50;;;1.97;;
65172;SDS011;51758;52.218;5.172;2022-11-15T12:13:24;4.17;;;1.70;;
65172;SDS011;51758;52.218;5.172;2022-11-15T12:15:55;8.30;;;2.10;;
65172;SDS011;51758;52.218;5.172;2022-11-15T12:18:35;4.87;;;1.90;;
65172;SDS011;51758;52.218;5.172;2022-11-15T12:21:06;4.90;;;1.60;;
65172;SDS011;51758;52.218;5.172;2022-11-15T12:23:42;5.40;;;1.70;;
65172;SDS011;51758;52.218;5.172;2022-11-15T12:26:15;4.40;;;1.70;;
65172;SDS011;51758;52.218;5.172;2022-11-15T12:28:47;7.83;;;1.70;;
65172;SDS011;51758;52.218;5.172;2022-11-15T12:31:35;5.43;;;1.57;;
65172;SDS011;51758;52.218;5.172;2022-11-15T12:34:13;5.43;;;1.73;;
65172;SDS011;51758;52.218;5.172;2022-11-15T12:36:57;6.80;;;1.67;;
65172;SDS011;51758;52.218;5.172;2022-11-15T12:42:39;4.33;;;1.40;;
65172;SDS011;51758;52.218;5.172;2022-11-15T12:45:23;4.77;;;1.30;;
65172;SDS011;51758;52.218;5.172;2022-11-15T12:47:53;4.60;;;1.60;;
65172;SDS011;51758;52.218;5.172;2022-11-15T12:53:27;5.60;;;1.50;;
65172;SDS011;51758;52.218;5.172;2022-11-15T12:58:53;11.83;;;1.30;;
65172;SDS011;51758;52.218;5.172;2022-11-15T13:04:25;7.10;;;1.10;;
65172;SDS011;51758;52.218;5.172;2022-11-15T13:06:55;3.40;;;1.00;;
65172;SDS011;51758;52.218;5.172;2022-11-15T13:15:32;4.47;;;1.20;;
65172;SDS011;51758;52.218;5.172;2022-11-15T13:21:04;3.23;;;1.00;;
65172;SDS011;51758;52.218;5.172;2022-11-15T13:23:58;5.47;;;1.57;;
65172;SDS011;51758;52.218;5.172;2022-11-15T13:26:27;9.33;;;1.93;;
65172;SDS011;51758;52.218;5.172;2022-11-15T13:28:55;5.13;;;1.03;;
65172;SDS011;51758;52.218;5.172;2022-11-15T13:31:30;3.97;;;1.30;;
65172;SDS011;51758;52.218;5.172;2022-11-15T13:34:13;8.13;;;1.37;;
65172;SDS011;51758;52.218;5.172;2022-11-15T13:37:04;4.83;;;1.20;;
65172;SDS011;51758;52.218;5.172;2022-11-15T13:39:39;4.90;;;1.17;;
65172;SDS011;51758;52.218;5.172;2022-11-15T13:42:13;4.10;;;1.07;;
65172;SDS011;51758;52.218;5.172;2022-11-15T13:44:54;7.17;;;1.30;;
65172;SDS011;51758;52.218;5.172;2022-11-15T13:47:24;5.80;;;1.20;;
65172;SDS011;51758;52.218;5.172;2022-11-15T13:49:54;3.97;;;1.20;;
65172;SDS011;51758;52.218;5.172;2022-11-15T13:52:24;7.93;;;1.70;;
65172;SDS011;51758;52.218;5.172;2022-11-15T13:54:57;6.20;;;1.60;;
65172;SDS011;51758;52.218;5.172;2022-11-15T13:57:33;3.13;;;1.40;;
65172;SDS011;51758;52.218;5.172;2022-11-15T14:00:24;3.90;;;1.30;;
65172;SDS011;51758;52.218;5.172;2022-11-15T14:02:54;4.73;;;1.13;;
65172;SDS011;51758;52.218;5.172;2022-11-15T14:05:24;5.37;;;1.57;;
65172;SDS011;51758;52.218;5.172;2022-11-15T14:07:52;3.63;;;1.63;;
65172;SDS011;51758;52.218;5.172;2022-11-15T14:12:59;4.63;;;1.37;;
65172;SDS011;51758;52.218;5.172;2022-11-15T14:15:28;4.10;;;1.40;;
65172;SDS011;51758;52.218;5.172;2022-11-15T14:17:58;5.90;;;1.50;;
65172;SDS011;51758;52.218;5.172;2022-11-15T14:20:28;5.28;;;1.50;;
65172;SDS011;51758;52.218;5.172;2022-11-15T14:22:59;5.43;;;1.77;;
65172;SDS011;51758;52.218;5.172;2022-11-15T14:25:28;2.37;;;1.43;;
65172;SDS011;51758;52.218;5.172;2022-11-15T14:31:00;5.67;;;1.60;;
65172;SDS011;51758;52.218;5.172;2022-11-15T14:33:28;6.30;;;1.67;;
65172;SDS011;51758;52.218;5.172;2022-11-15T14:36:01;5.57;;;1.70;;
65172;SDS011;51758;52.218;5.172;2022-11-15T14:38:31;6.70;;;1.87;;
65172;SDS011;51758;52.218;5.172;2022-11-15T14:40:59;3.67;;;1.83;;
65172;SDS011;51758;52.218;5.172;2022-11-15T14:43:29;4.73;;;2.10;;
65172;SDS011;51758;52.218;5.172;2022-11-15T14:45:56;8.00;;;2.07;;
65172;SDS011;51758;52.218;5.172;2022-11-15T14:48:24;6.67;;;1.57;;
65172;SDS011;51758;52.218;5.172;2022-11-15T14:50:51;5.60;;;2.93;;
65172;SDS011;51758;52.218;5.172;2022-11-15T14:53:19;9.93;;;4.70;;
65172;SDS011;51758;52.218;5.172;2022-11-15T14:55:48;5.83;;;2.00;;
65172;SDS011;51758;52.218;5.172;2022-11-15T14:58:16;3.55;;;1.80;;
65172;SDS011;51758;52.218;5.172;2022-11-15T15:00:45;4.47;;;1.90;;
65172;SDS011;51758;52.218;5.172;2022-11-15T15:03:13;3.93;;;1.80;;
65172;SDS011;51758;52.218;5.172;2022-11-15T15:05:41;6.00;;;1.70;;
65172;SDS011;51758;52.218;5.172;2022-11-15T15:08:10;8.83;;;4.40;;
65172;SDS011;51758;52.218;5.172;2022-11-15T15:10:38;7.75;;;2.97;;
65172;SDS011;51758;52.218;5.172;2022-11-15T15:13:10;3.50;;;1.77;;
65172;SDS011;51758;52.218;5.172;2022-11-15T15:15:45;6.73;;;2.50;;
65172;SDS011;51758;52.218;5.172;2022-11-15T15:18:13;6.43;;;2.70;;
65172;SDS011;51758;52.218;5.172;2022-11-15T15:20:41;4.10;;;1.42;;
65172;SDS011;51758;52.218;5.172;2022-11-15T15:23:14;6.13;;;2.30;;
65172;SDS011;51758;52.218;5.172;2022-11-15T15:25:43;6.37;;;2.70;;
65172;SDS011;51758;52.218;5.172;2022-11-15T15:28:12;5.07;;;3.00;;
65172;SDS011;51758;52.218;5.172;2022-11-15T15:30:40;4.90;;;2.13;;
65172;SDS011;51758;52.218;5.172;2022-11-15T15:33:09;5.40;;;3.03;;
65172;SDS011;51758;52.218;5.172;2022-11-15T15:35:37;8.30;;;1.60;;
65172;SDS011;51758;52.218;5.172;2022-11-15T15:38:04;6.00;;;3.03;;
65172;SDS011;51758;52.218;5.172;2022-11-15T15:40:32;6.07;;;1.90;;